createdAt,value
2019-01-10T00:00:15.358Z,4.1
2019-01-10T00:03:15.530Z,4.1
2019-01-10T00:06:15.708Z,4.1
2019-01-10T00:09:15.717Z,4.1
2019-01-10T00:12:15.716Z,4.1
2019-01-10T00:15:15.207Z,4.1
2019-01-10T00:18:15.376Z,4.2
2019-01-10T00:21:15.381Z,4.2
2019-01-10T00:24:15.549Z,4.2
2019-01-10T00:27:15.725Z,4.2
2019-01-10T00:30:15.581Z,4.2
2019-01-10T00:33:15.907Z,4.2
2019-01-10T00:36:15.906Z,4.3
2019-01-10T00:39:16.085Z,4.2
2019-01-10T00:42:15.566Z,4.2
2019-01-10T00:45:15.577Z,4.3
2019-01-10T00:48:15.740Z,4.3
2019-01-10T00:51:15.923Z,4.3
2019-01-10T00:54:16.101Z,4.3
2019-01-10T00:57:16.192Z,4.3
2019-01-10T01:00:15.258Z,4.3
2019-01-10T01:03:15.920Z,4.3
2019-01-10T01:06:16.269Z,4.4
2019-01-10T01:09:15.411Z,4.4
2019-01-10T01:12:15.591Z,4.4
2019-01-10T01:15:15.770Z,4.5
2019-01-10T01:18:15.942Z,4.5
2019-01-10T01:21:15.253Z,4.6
2019-01-10T01:24:15.437Z,4.6
2019-01-10T01:27:15.953Z,4.6
2019-01-10T01:30:16.318Z,4.6
2019-01-10T01:33:15.620Z,4.6
2019-01-10T01:36:15.782Z,4.6
2019-01-10T01:39:16.145Z,4.5
2019-01-10T01:42:16.306Z,4.5
2019-01-10T01:45:15.618Z,4.5
2019-01-10T01:48:15.804Z,4.5
2019-01-10T01:51:15.998Z,4.5
2019-01-10T01:54:16.132Z,4.6
2019-01-10T01:57:16.138Z,4.6
2019-01-10T02:00:15.975Z,4.6
2019-01-10T02:03:15.453Z,4.6
2019-01-10T02:06:15.465Z,4.7
2019-01-10T02:09:15.626Z,4.7
2019-01-10T02:12:15.634Z,4.7
2019-01-10T02:15:15.814Z,4.7
2019-01-10T02:18:16.000Z,4.7
2019-01-10T02:21:16.337Z,4.7
2019-01-10T02:24:15.306Z,4.7
2019-01-10T02:27:15.650Z,4.7
2019-01-10T02:30:15.831Z,4.7
2019-01-10T02:33:15.996Z,4.7
2019-01-10T02:36:15.998Z,4.7
2019-01-10T02:39:16.198Z,4.7
2019-01-10T02:42:15.150Z,4.7
2019-01-10T02:45:16.015Z,4.7
2019-01-10T02:48:19.414Z,4.7
2019-01-10T02:51:15.846Z,4.7
2019-01-10T02:54:15.872Z,4.7
2019-01-10T02:57:16.192Z,4.6
2019-01-10T03:00:15.338Z,4.6
2019-01-10T03:03:15.512Z,4.6
2019-01-10T03:06:15.684Z,4.6
2019-01-10T03:09:16.031Z,4.6
2019-01-10T03:12:16.026Z,4.6
2019-01-10T03:15:16.214Z,4.5
2019-01-10T03:18:15.362Z,4.5
2019-01-10T03:21:15.701Z,4.4
2019-01-10T03:24:15.880Z,4.4
2019-01-10T03:27:15.878Z,4.4
2019-01-10T03:30:15.188Z,4.4
2019-01-10T03:33:16.066Z,4.5
2019-01-10T03:36:15.363Z,4.5
2019-01-10T03:39:15.534Z,4.5
2019-01-10T03:42:15.897Z,4.4
2019-01-10T03:45:16.052Z,4.4
2019-01-10T03:48:15.652Z,4.3
2019-01-10T03:51:15.742Z,4.3
2019-01-10T03:54:16.061Z,4.3
2019-01-10T03:57:15.207Z,4.2
2019-01-10T04:00:15.827Z,4.1
2019-01-10T04:03:15.908Z,4.1
2019-01-10T04:06:16.250Z,4.1
2019-01-10T04:09:15.223Z,4.1
2019-01-10T04:12:15.562Z,4.2
2019-01-10T04:15:15.909Z,4.2
2019-01-10T04:18:15.260Z,4.3
2019-01-10T04:21:17.485Z,4.3
2019-01-10T04:24:15.740Z,4.3
2019-01-10T04:27:16.099Z,4.3
2019-01-10T04:30:15.567Z,4.3
2019-01-10T04:33:15.574Z,4.3
2019-01-10T04:36:15.924Z,4.3
2019-01-10T04:39:16.304Z,4.4
2019-01-10T04:42:15.759Z,4.4
2019-01-10T04:45:15.925Z,4.4
2019-01-10T04:48:16.105Z,4.3
2019-01-10T04:51:15.612Z,4.3
2019-01-10T04:54:15.632Z,4.4
2019-01-10T04:57:15.948Z,4.4
2019-01-10T05:00:15.943Z,4.4
2019-01-10T05:03:16.130Z,4.4
2019-01-10T05:06:15.295Z,4.3
2019-01-10T05:09:15.607Z,4.3
2019-01-10T05:12:15.797Z,4.2
2019-01-10T05:15:16.122Z,4.1
2019-01-10T05:18:15.264Z,4.1
2019-01-10T05:21:15.627Z,4.1
2019-01-10T05:24:15.613Z,4.1
2019-01-10T05:27:16.320Z,4.2
2019-01-10T05:30:15.629Z,4.2
2019-01-10T05:33:15.809Z,4.2
2019-01-10T05:36:16.138Z,4.2
2019-01-10T05:39:15.469Z,4.2
2019-01-10T05:42:15.982Z,4.2
2019-01-10T05:45:15.990Z,4.3
2019-01-10T05:48:15.487Z,4.3
2019-01-10T05:51:15.808Z,4.4
2019-01-10T05:54:16.163Z,4.4
2019-01-10T05:57:15.646Z,4.4
2019-01-10T06:00:16.202Z,4.4
2019-01-10T06:03:15.300Z,4.3
2019-01-10T06:06:15.479Z,4.3
2019-01-10T06:09:15.650Z,4.3
2019-01-10T06:12:15.839Z,4.2
2019-01-10T06:15:16.172Z,4.1
2019-01-10T06:18:15.673Z,4.1
2019-01-10T06:21:16.035Z,4.0
2019-01-10T06:24:15.500Z,3.9
2019-01-10T06:27:15.667Z,3.8
2019-01-10T06:30:15.854Z,3.8
2019-01-10T06:33:16.030Z,3.7
2019-01-10T06:36:15.704Z,3.7
2019-01-10T06:39:19.480Z,3.7
2019-01-10T06:42:15.857Z,3.7
2019-01-10T06:45:16.199Z,3.7
2019-01-10T06:48:15.499Z,3.7
2019-01-10T06:51:16.213Z,3.6
2019-01-10T06:54:16.214Z,3.6
2019-01-10T06:57:16.322Z,3.6
2019-01-10T07:00:15.560Z,3.6
2019-01-10T07:03:16.206Z,3.5
2019-01-10T07:06:15.741Z,3.5
2019-01-10T07:09:16.392Z,3.5
2019-01-10T07:12:15.904Z,3.4
2019-01-10T07:15:16.265Z,3.4
2019-01-10T07:18:15.548Z,3.4
2019-01-10T07:21:15.885Z,3.4
2019-01-10T07:24:15.907Z,3.4
2019-01-10T07:27:15.380Z,3.4
2019-01-10T07:30:15.558Z,3.4
2019-01-10T07:33:16.421Z,3.4
2019-01-10T07:36:16.057Z,3.5
2019-01-10T07:39:15.562Z,3.4
2019-01-10T07:42:15.731Z,3.5
2019-01-10T07:45:15.406Z,3.5
2019-01-10T07:48:15.693Z,3.7
2019-01-10T07:51:16.093Z,3.8
2019-01-10T07:54:15.567Z,3.9
2019-01-10T07:57:15.591Z,4.1
2019-01-10T08:00:16.087Z,4.2
2019-01-10T08:03:15.519Z,4.4
2019-01-10T08:06:15.776Z,4.6
2019-01-10T08:09:16.103Z,4.7
2019-01-10T08:12:15.238Z,4.8
2019-01-10T08:15:15.589Z,5.0
2019-01-10T08:18:15.415Z,5.1
2019-01-10T08:21:15.947Z,5.4
2019-01-10T08:24:16.267Z,5.7
2019-01-10T08:27:15.427Z,6.0
2019-01-10T08:30:15.880Z,6.1
2019-01-10T08:33:16.130Z,6.1
2019-01-10T08:36:16.281Z,6.2
2019-01-10T08:39:15.791Z,6.2
2019-01-10T08:42:16.126Z,6.3
2019-01-10T08:45:21.344Z,6.4
2019-01-10T08:48:15.272Z,6.5
2019-01-10T08:51:15.616Z,6.7
2019-01-10T08:54:15.792Z,6.8
2019-01-10T08:57:16.133Z,6.9
2019-01-10T09:00:15.463Z,6.9
2019-01-10T09:03:16.131Z,6.8
2019-01-10T09:06:16.147Z,6.7
2019-01-10T09:09:15.280Z,6.6
2019-01-10T09:12:15.295Z,6.5
2019-01-10T09:15:23.356Z,6.3
2019-01-10T09:18:15.823Z,6.3
2019-01-10T09:21:16.163Z,6.3
2019-01-10T09:24:16.172Z,6.3
2019-01-10T09:27:15.643Z,6.3
2019-01-10T09:30:15.825Z,6.5
2019-01-10T09:33:16.361Z,6.5
2019-01-10T09:36:15.746Z,6.5
2019-01-10T09:39:15.829Z,6.6
2019-01-10T09:42:15.843Z,6.5
2019-01-10T09:45:16.013Z,6.5
2019-01-10T09:48:15.331Z,6.4
2019-01-10T09:51:15.874Z,6.4
2019-01-10T09:54:15.845Z,6.5
2019-01-10T09:57:16.199Z,6.7
2019-01-10T10:00:16.189Z,6.8
2019-01-10T10:03:16.364Z,6.9
2019-01-10T10:06:15.347Z,7.1
2019-01-10T10:09:15.340Z,7.4
2019-01-10T10:12:15.345Z,7.7
2019-01-10T10:15:15.516Z,8.0
2019-01-10T10:18:15.857Z,8.0
2019-01-10T10:21:15.866Z,8.3
2019-01-10T10:24:16.207Z,8.3
2019-01-10T10:27:15.538Z,8.1
2019-01-10T10:30:15.883Z,8.0
2019-01-10T10:33:15.346Z,7.8
2019-01-10T10:36:15.365Z,7.6
2019-01-10T10:39:16.056Z,7.5
2019-01-10T10:42:15.529Z,7.5
2019-01-10T10:45:15.703Z,7.3
2019-01-10T10:48:16.073Z,7.3
2019-01-10T10:51:15.377Z,7.3
2019-01-10T10:54:15.890Z,7.3
2019-01-10T10:57:16.066Z,7.2
2019-01-10T11:00:15.378Z,7.1
2019-01-10T11:03:15.395Z,7.0
2019-01-10T11:06:15.740Z,6.7
2019-01-10T11:09:15.910Z,6.6
2019-01-10T11:12:16.102Z,6.5
2019-01-10T11:15:15.401Z,6.4
2019-01-10T11:18:15.935Z,6.4
2019-01-10T11:21:15.236Z,6.4
2019-01-10T11:24:15.575Z,6.4
2019-01-10T11:27:16.077Z,6.5
2019-01-10T11:30:16.262Z,6.5
2019-01-10T11:33:15.412Z,6.5
2019-01-10T11:36:15.746Z,6.6
2019-01-10T11:39:15.749Z,6.7
2019-01-10T11:42:15.927Z,6.6
2019-01-10T11:45:15.935Z,6.7
2019-01-10T11:48:16.273Z,6.8
2019-01-10T11:51:15.416Z,6.7
2019-01-10T11:54:15.757Z,6.7
2019-01-10T11:57:15.766Z,6.6
2019-01-10T12:00:16.319Z,6.6
2019-01-10T12:03:16.287Z,6.6
2019-01-10T12:06:15.608Z,6.5
2019-01-10T12:09:15.811Z,6.4
2019-01-10T12:12:15.970Z,6.5
2019-01-10T12:15:16.308Z,6.6
2019-01-10T12:18:15.621Z,6.7
2019-01-10T12:21:16.132Z,6.7
2019-01-10T12:24:16.487Z,6.8
2019-01-10T12:27:16.564Z,6.8
2019-01-10T12:30:15.473Z,6.8
2019-01-10T12:33:15.965Z,6.8
2019-01-10T12:36:16.173Z,6.8
2019-01-10T12:39:15.469Z,6.8
2019-01-10T12:42:15.809Z,6.8
2019-01-10T12:45:15.978Z,6.8
2019-01-10T12:48:16.503Z,6.7
2019-01-10T12:51:15.645Z,6.7
2019-01-10T12:54:15.989Z,6.6
2019-01-10T12:57:16.164Z,6.6
2019-01-10T13:00:20.927Z,6.5
2019-01-10T13:03:16.001Z,6.4
2019-01-10T13:06:16.510Z,6.4
2019-01-10T13:09:15.665Z,6.3
2019-01-10T13:12:16.010Z,6.2
2019-01-10T13:15:15.322Z,6.1
2019-01-10T13:18:16.188Z,6.1
2019-01-10T13:21:15.492Z,6.2
2019-01-10T13:24:15.673Z,6.3
2019-01-10T13:27:15.666Z,6.3
2019-01-10T13:30:15.856Z,6.3
2019-01-10T13:33:15.684Z,6.3
2019-01-10T13:36:15.857Z,6.4
2019-01-10T13:39:16.021Z,6.4
2019-01-10T13:42:15.680Z,6.4
2019-01-10T13:45:15.687Z,6.4
2019-01-10T13:48:16.028Z,6.4
2019-01-10T13:51:15.336Z,6.5
2019-01-10T13:54:15.347Z,6.5
2019-01-10T13:57:15.689Z,6.6
2019-01-10T14:00:15.887Z,6.6
2019-01-10T14:03:15.704Z,6.5
2019-01-10T14:06:15.875Z,6.5
2019-01-10T14:09:15.355Z,6.5
2019-01-10T14:12:15.536Z,6.4
2019-01-10T14:15:15.893Z,6.4
2019-01-10T14:18:15.548Z,6.4
2019-01-10T14:21:16.056Z,6.3
2019-01-10T14:24:16.228Z,6.3
2019-01-10T14:27:16.234Z,6.3
2019-01-10T14:30:15.556Z,6.3
2019-01-10T14:33:15.898Z,6.2
2019-01-10T14:36:15.904Z,6.2
2019-01-10T14:39:15.383Z,6.2
2019-01-10T14:42:15.727Z,6.2
2019-01-10T14:45:16.079Z,6.1
2019-01-10T14:48:15.574Z,6.1
2019-01-10T14:51:16.083Z,6.0
2019-01-10T14:54:15.405Z,6.0
2019-01-10T14:57:15.917Z,5.9
2019-01-10T15:00:15.928Z,5.9
2019-01-10T15:03:16.263Z,5.8
2019-01-10T15:06:15.403Z,5.7
2019-01-10T15:09:15.742Z,5.5
2019-01-10T15:12:15.757Z,5.4
2019-01-10T15:15:16.105Z,5.3
2019-01-10T15:18:15.407Z,5.3
2019-01-10T15:21:15.928Z,5.3
2019-01-10T15:24:16.101Z,5.3
2019-01-10T15:27:16.455Z,5.2
2019-01-10T15:30:15.771Z,5.2
2019-01-10T15:33:16.117Z,5.1
2019-01-10T15:36:15.254Z,5.1
2019-01-10T15:39:15.424Z,5.1
2019-01-10T15:42:15.427Z,5.0
2019-01-10T15:45:15.601Z,4.9
2019-01-10T15:48:16.126Z,4.9
2019-01-10T15:51:16.489Z,4.8
2019-01-10T15:54:15.780Z,4.7
2019-01-10T15:57:15.966Z,4.7
2019-01-10T16:00:20.766Z,4.7
2019-01-10T16:03:15.794Z,4.8
2019-01-10T16:06:15.975Z,4.8
2019-01-10T16:09:16.141Z,4.8
2019-01-10T16:12:15.451Z,4.8
2019-01-10T16:15:15.800Z,4.8
2019-01-10T16:18:16.313Z,4.9
2019-01-10T16:21:15.283Z,4.9
2019-01-10T16:24:15.640Z,4.8
2019-01-10T16:27:16.159Z,4.7
2019-01-10T16:30:15.467Z,4.7
2019-01-10T16:33:15.820Z,4.7
2019-01-10T16:36:16.015Z,4.7
2019-01-10T16:39:16.162Z,4.7
2019-01-10T16:42:16.361Z,4.7
2019-01-10T16:45:15.515Z,4.7
2019-01-10T16:48:16.176Z,4.6
2019-01-10T16:51:15.325Z,4.6
2019-01-10T16:54:15.661Z,4.6
2019-01-10T16:57:16.915Z,4.6
2019-01-10T17:00:16.247Z,4.5
2019-01-10T17:03:16.218Z,4.5
2019-01-10T17:06:15.674Z,4.5
2019-01-10T17:09:17.749Z,4.5
2019-01-10T17:12:16.382Z,4.5
2019-01-10T17:15:15.842Z,4.5
2019-01-10T17:18:15.510Z,4.6
2019-01-10T17:21:15.524Z,4.6
2019-01-10T17:24:15.723Z,4.6
2019-01-10T17:27:15.864Z,4.7
2019-01-10T17:30:16.221Z,4.7
2019-01-10T17:33:15.547Z,4.7
2019-01-10T17:36:18.518Z,4.6
2019-01-10T17:39:16.042Z,4.5
2019-01-10T17:42:17.282Z,4.4
2019-01-10T17:45:15.872Z,4.3
2019-01-10T17:48:16.053Z,4.3
2019-01-10T17:51:15.529Z,4.2
2019-01-10T17:54:16.053Z,4.1
2019-01-10T17:57:15.554Z,4.0
2019-01-10T18:00:15.885Z,3.9
2019-01-10T18:03:16.833Z,3.7
2019-01-10T18:06:16.062Z,3.7
2019-01-10T18:09:17.574Z,3.6
2019-01-10T18:12:15.555Z,3.6
2019-01-10T18:15:16.251Z,3.5
2019-01-10T18:18:15.761Z,3.5
2019-01-10T18:21:17.124Z,3.5
2019-01-10T18:24:16.416Z,3.4
2019-01-10T18:27:15.559Z,3.4
2019-01-10T18:30:17.121Z,3.3
2019-01-10T18:33:15.570Z,3.2
2019-01-10T18:36:16.443Z,3.1
2019-01-10T18:39:15.581Z,3.0
2019-01-10T18:42:15.930Z,3.0
2019-01-10T18:45:16.274Z,3.0
2019-01-10T18:48:15.764Z,3.0
2019-01-10T18:51:16.101Z,3.0
2019-01-10T18:54:16.111Z,3.0
2019-01-10T18:57:15.408Z,3.0
2019-01-10T19:00:15.604Z,3.0
2019-01-10T19:03:15.944Z,3.0
2019-01-10T19:06:15.941Z,3.0
2019-01-10T19:09:16.162Z,3.0
2019-01-10T19:12:15.432Z,3.1
2019-01-10T19:15:15.617Z,3.1
2019-01-10T19:18:15.959Z,3.2
2019-01-10T19:21:15.297Z,3.2
2019-01-10T19:24:15.619Z,3.2
2019-01-10T19:27:15.294Z,3.3
2019-01-10T19:30:16.180Z,3.3
2019-01-10T19:33:20.854Z,3.4
2019-01-10T19:36:16.000Z,3.4
2019-01-10T19:39:17.415Z,3.5
2019-01-10T19:42:18.071Z,3.5
2019-01-10T19:45:18.502Z,3.6
2019-01-10T19:48:16.575Z,3.6
2019-01-10T19:51:20.582Z,3.6
2019-01-10T19:54:18.081Z,3.6
2019-01-10T19:57:21.284Z,3.7
2019-01-10T20:00:16.014Z,3.7
2019-01-10T20:03:16.778Z,3.7
2019-01-10T20:06:17.298Z,3.7
2019-01-10T20:09:29.982Z,3.7
2019-01-10T20:12:17.777Z,3.7
2019-01-10T20:15:16.479Z,3.7
2019-01-10T20:18:16.596Z,3.7
2019-01-10T20:21:15.325Z,3.8
2019-01-10T20:24:16.656Z,3.8
2019-01-10T20:27:16.417Z,3.8
2019-01-10T20:30:16.619Z,3.8
2019-01-10T20:33:16.602Z,3.8
2019-01-10T20:36:16.438Z,3.7
2019-01-10T20:39:18.066Z,3.7
2019-01-10T20:54:18.470Z,3.4
2019-01-10T20:57:17.505Z,3.4
2019-01-10T21:00:18.490Z,3.4
2019-01-10T21:03:15.118Z,3.4
2019-01-10T21:06:15.658Z,3.4
2019-01-10T21:09:16.060Z,3.4
2019-01-10T21:12:26.067Z,3.4
2019-01-10T21:15:15.368Z,3.5
2019-01-10T21:18:15.550Z,3.5
2019-01-10T21:21:15.914Z,3.5
2019-01-10T21:24:16.384Z,3.5
2019-01-10T21:27:15.757Z,3.5
2019-01-10T21:30:16.246Z,3.5
2019-01-10T21:33:15.588Z,3.6
2019-01-10T21:36:15.740Z,3.5
2019-01-10T21:39:16.080Z,3.6
2019-01-10T21:42:16.258Z,3.6
2019-01-10T21:45:15.400Z,3.6
2019-01-10T21:48:15.793Z,3.6
2019-01-10T21:51:16.099Z,3.7
2019-01-10T21:54:16.084Z,3.7
2019-01-10T21:57:16.052Z,3.7
2019-01-10T22:00:15.746Z,3.7
2019-01-10T22:03:15.772Z,3.7
2019-01-10T22:06:16.123Z,3.7
2019-01-10T22:09:15.593Z,3.7
2019-01-10T22:12:15.293Z,3.7
2019-01-10T22:15:15.767Z,3.7
2019-01-10T22:18:15.936Z,3.7
2019-01-10T22:21:16.279Z,3.7
2019-01-10T22:24:15.253Z,3.7
2019-01-10T22:27:15.374Z,3.7
2019-01-10T22:30:15.777Z,3.7
2019-01-10T22:33:15.957Z,3.7
2019-01-10T22:36:16.117Z,3.7
2019-01-10T22:39:16.301Z,3.6
2019-01-10T22:42:15.271Z,3.6
2019-01-10T22:45:15.470Z,3.6
2019-01-10T22:48:15.609Z,3.6
2019-01-10T22:51:15.978Z,3.6
2019-01-10T22:54:15.454Z,3.6
2019-01-10T22:57:15.837Z,3.6
2019-01-10T23:00:16.095Z,3.6
2019-01-10T23:03:16.301Z,3.6
2019-01-10T23:06:16.182Z,3.5
2019-01-10T23:09:15.621Z,3.5
2019-01-10T23:12:16.001Z,3.5
2019-01-10T23:15:15.295Z,3.5
2019-01-10T23:18:17.618Z,3.5
2019-01-10T23:21:15.821Z,3.5
2019-01-10T23:24:16.057Z,3.5
2019-01-10T23:27:20.584Z,3.5
2019-01-10T23:30:16.393Z,3.5
2019-01-10T23:33:17.657Z,3.5
2019-01-10T23:36:20.236Z,3.5
2019-01-10T23:39:16.777Z,3.4
2019-01-10T23:42:15.673Z,3.4
2019-01-10T23:45:17.685Z,3.4
2019-01-10T23:48:17.155Z,3.4
2019-01-10T23:51:16.063Z,3.4
2019-01-10T23:54:16.565Z,3.4
2019-01-10T23:57:16.945Z,3.4
